createdAt,value
2022-10-20T00:00:08.164Z,102241.94
2022-10-20T00:02:34.774Z,102232.41
2022-10-20T00:05:01.366Z,102226.88
2022-10-20T00:07:27.697Z,102232.66
2022-10-20T00:09:54.000Z,102230.41
2022-10-20T00:12:20.314Z,102234.66
2022-10-20T00:14:46.614Z,102222.25
2022-10-20T00:17:12.932Z,102226.66
2022-10-20T00:19:39.228Z,102220.13
2022-10-20T00:22:05.539Z,102217.88
2022-10-20T00:24:31.842Z,102211.97
2022-10-20T00:26:58.148Z,102210.59
2022-10-20T00:29:24.473Z,102220.63
2022-10-20T00:31:50.787Z,102212.59
2022-10-20T00:34:17.113Z,102203.94
2022-10-20T00:36:46.323Z,102198.94
2022-10-20T00:39:15.186Z,102185.19
2022-10-20T00:41:41.572Z,102183.03
2022-10-20T00:44:26.621Z,102179.28
2022-10-20T00:46:52.943Z,102184.28
2022-10-20T00:49:20.828Z,102187.78
2022-10-20T00:51:47.161Z,102195.81
2022-10-20T00:54:14.854Z,102192.16
2022-10-20T00:56:41.889Z,102192.06
2022-10-20T00:59:08.198Z,102189.91
2022-10-20T01:01:34.543Z,102187.66
2022-10-20T01:04:00.983Z,102194.16
2022-10-20T01:06:27.294Z,102189.78
2022-10-20T01:08:53.779Z,102184.78
2022-10-20T01:11:26.239Z,102179.00
2022-10-20T01:13:56.457Z,102175.25
2022-10-20T01:16:37.146Z,102183.16
2022-10-20T01:19:15.651Z,102170.84
2022-10-20T01:21:45.923Z,102167.97
2022-10-20T01:24:17.581Z,102167.22
2022-10-20T01:26:52.362Z,102163.59
2022-10-20T01:29:19.820Z,102163.59
2022-10-20T01:31:50.248Z,102157.84
2022-10-20T01:34:21.341Z,102152.81
2022-10-20T01:36:49.083Z,102159.22
2022-10-20T01:39:16.528Z,102149.06
2022-10-20T01:41:43.703Z,102149.06
2022-10-20T01:44:10.770Z,102143.91
2022-10-20T01:46:37.175Z,102138.16
2022-10-20T01:49:03.494Z,102136.66
2022-10-20T01:51:29.869Z,102131.66
2022-10-20T01:53:56.280Z,102127.41
2022-10-20T01:56:30.989Z,102119.53
2022-10-20T01:59:00.998Z,102101.38
2022-10-20T02:01:45.950Z,102110.00
2022-10-20T02:04:12.332Z,102105.59
2022-10-20T02:06:51.611Z,102102.59
2022-10-20T02:09:18.889Z,102108.34
2022-10-20T02:11:49.429Z,102093.97
2022-10-20T02:14:15.958Z,102094.09
2022-10-20T02:16:44.262Z,102097.63
2022-10-20T02:19:10.592Z,102099.84
2022-10-20T02:21:40.375Z,102102.59
2022-10-20T02:24:07.349Z,102106.88
2022-10-20T02:26:33.911Z,102094.72
2022-10-20T02:29:01.602Z,102088.19
2022-10-20T02:31:27.931Z,102087.59
2022-10-20T02:33:54.762Z,102073.81
2022-10-20T02:36:21.246Z,102076.69
2022-10-20T02:38:47.552Z,102080.94
2022-10-20T02:41:13.911Z,102076.59
2022-10-20T02:43:40.226Z,102078.06
2022-10-20T02:46:06.663Z,102081.34
2022-10-20T02:48:33.045Z,102074.34
2022-10-20T02:50:59.370Z,102077.09
2022-10-20T02:53:25.696Z,102059.81
2022-10-20T02:55:52.041Z,102064.31
2022-10-20T02:58:18.358Z,102066.69
2022-10-20T03:00:44.737Z,102067.59
2022-10-20T03:03:11.071Z,102063.34
2022-10-20T03:05:41.793Z,102060.59
2022-10-20T03:08:08.106Z,102056.31
2022-10-20T03:10:35.273Z,102066.34
2022-10-20T03:13:01.600Z,102052.06
2022-10-20T03:15:27.904Z,102049.06
2022-10-20T03:17:54.219Z,102053.44
2022-10-20T03:20:20.541Z,102039.03
2022-10-20T03:22:46.866Z,102038.44
2022-10-20T03:25:13.182Z,102031.28
2022-10-20T03:27:39.533Z,102029.13
2022-10-20T03:30:06.060Z,102033.53
2022-10-20T03:32:32.382Z,102029.28
2022-10-20T03:34:58.701Z,102021.88
2022-10-20T03:37:25.033Z,102025.03
2022-10-20T03:39:51.342Z,102019.25
2022-10-20T03:42:17.681Z,102025.03
2022-10-20T03:44:46.875Z,102025.03
2022-10-20T03:47:13.245Z,102025.03
2022-10-20T03:49:40.357Z,102015.00
2022-10-20T03:52:06.678Z,102021.50
2022-10-20T03:54:33.012Z,102018.00
2022-10-20T03:56:59.330Z,102017.25
2022-10-20T03:59:28.123Z,102012.38
2022-10-20T04:01:56.842Z,102014.50
2022-10-20T04:04:23.171Z,102008.09
2022-10-20T04:06:49.489Z,102010.97
2022-10-20T04:09:15.796Z,102015.25
2022-10-20T04:11:42.155Z,102010.22
2022-10-20T04:14:08.462Z,102020.28
2022-10-20T04:16:34.821Z,102016.75
2022-10-20T04:19:01.125Z,102015.25
2022-10-20T04:21:27.437Z,102008.75
2022-10-20T04:23:53.756Z,102005.22
2022-10-20T04:26:20.112Z,102006.00
2022-10-20T04:28:46.462Z,101996.44
2022-10-20T04:31:12.770Z,101999.59
2022-10-20T04:33:39.082Z,101993.81
2022-10-20T04:36:06.344Z,101999.59
2022-10-20T04:38:32.694Z,101991.69
2022-10-20T04:41:01.902Z,101993.81
2022-10-20T04:43:30.770Z,101985.19
2022-10-20T04:46:03.845Z,101986.69
2022-10-20T04:48:33.402Z,101985.94
2022-10-20T04:51:00.514Z,101988.19
2022-10-20T04:53:26.830Z,101980.94
2022-10-20T04:55:56.493Z,101988.19
2022-10-20T04:58:22.945Z,101975.31
2022-10-20T05:00:49.265Z,101970.91
2022-10-20T05:03:15.591Z,101978.94
2022-10-20T05:05:41.925Z,101968.16
2022-10-20T05:08:08.234Z,101963.88
2022-10-20T05:10:36.671Z,101963.88
2022-10-20T05:13:03.228Z,101950.88
2022-10-20T05:15:29.546Z,101955.25
2022-10-20T05:17:55.855Z,101951.59
2022-10-20T05:20:22.198Z,101947.38
2022-10-20T05:22:48.506Z,101947.38
2022-10-20T05:28:01.125Z,101946.72
2022-10-20T05:30:27.457Z,101949.59
2022-10-20T05:32:53.765Z,101948.84
2022-10-20T05:35:20.088Z,101964.13
2022-10-20T05:37:46.410Z,101956.88
2022-10-20T05:40:12.786Z,101961.25
2022-10-20T05:42:39.346Z,101961.13
2022-10-20T05:45:05.982Z,101958.38
2022-10-20T05:47:32.294Z,101959.88
2022-10-20T05:49:58.618Z,101965.97
2022-10-20T05:52:24.932Z,101959.81
2022-10-20T05:54:51.304Z,101966.47
2022-10-20T05:57:18.134Z,101971.53
2022-10-20T05:59:44.501Z,101974.41
2022-10-20T06:02:11.124Z,101973.47
2022-10-20T06:04:37.457Z,101977.66
2022-10-20T06:07:05.691Z,101973.75
2022-10-20T06:09:32.010Z,101970.63
2022-10-20T06:11:58.605Z,101971.91
2022-10-20T06:14:25.805Z,101958.66
2022-10-20T06:16:52.436Z,101964.03
2022-10-20T06:19:18.836Z,101961.31
2022-10-20T06:21:45.193Z,101966.03
2022-10-20T06:24:11.638Z,101969.66
2022-10-20T06:26:37.952Z,101960.47
2022-10-20T06:29:08.359Z,101960.69
2022-10-20T06:31:35.437Z,101958.03
2022-10-20T06:34:01.800Z,101951.28
2022-10-20T06:36:28.207Z,101944.41
2022-10-20T06:38:55.222Z,101940.09
2022-10-20T06:41:21.685Z,101945.59
2022-10-20T06:43:48.062Z,101942.84
2022-10-20T06:46:15.495Z,101948.47
2022-10-20T06:48:41.821Z,101943.06
2022-10-20T06:51:09.826Z,101939.09
2022-10-20T06:53:36.361Z,101937.53
2022-10-20T06:56:03.593Z,101933.25
2022-10-20T06:58:29.914Z,101931.41
2022-10-20T07:01:25.290Z,101938.91
2022-10-20T07:03:53.189Z,101933.50
2022-10-20T07:06:23.383Z,101935.06
2022-10-20T07:08:51.033Z,101936.22
2022-10-20T07:11:18.122Z,101927.31
2022-10-20T07:13:44.452Z,101926.56
2022-10-20T07:16:14.031Z,101927.81
2022-10-20T07:18:40.480Z,101937.84
2022-10-20T07:21:07.725Z,101936.34
2022-10-20T07:23:34.412Z,101934.72
2022-10-20T07:26:01.418Z,101931.41
2022-10-20T07:28:27.849Z,101943.31
2022-10-20T07:30:54.531Z,101936.50
2022-10-20T07:33:20.850Z,101937.59
2022-10-20T07:35:47.850Z,101927.97
2022-10-20T07:38:14.162Z,101925.19
2022-10-20T07:40:40.507Z,101927.31
2022-10-20T07:43:06.906Z,101929.47
2022-10-20T07:45:33.254Z,101935.13
2022-10-20T07:47:59.566Z,101931.59
2022-10-20T07:50:26.059Z,101925.94
2022-10-20T07:52:52.619Z,101933.09
2022-10-20T07:55:37.526Z,101932.69
2022-10-20T07:58:05.162Z,101922.34
2022-10-20T08:00:31.525Z,101922.13
2022-10-20T08:02:57.915Z,101914.94
2022-10-20T08:05:24.247Z,101919.75
2022-10-20T08:07:50.558Z,101912.94
2022-10-20T08:10:16.869Z,101907.66
2022-10-20T08:12:43.178Z,101902.53
2022-10-20T08:15:16.832Z,101908.53
2022-10-20T08:17:43.142Z,101906.53
2022-10-20T08:20:14.106Z,101901.94
2022-10-20T08:22:40.422Z,101904.94
2022-10-20T08:25:06.860Z,101893.91
2022-10-20T08:27:33.173Z,101898.31
2022-10-20T08:30:06.031Z,101897.75
2022-10-20T08:32:38.922Z,101897.66
2022-10-20T08:35:05.698Z,101900.22
2022-10-20T08:37:32.011Z,101892.44
2022-10-20T08:39:58.329Z,101886.88
2022-10-20T08:42:24.714Z,101882.25
2022-10-20T08:44:51.034Z,101875.34
2022-10-20T08:47:26.694Z,101874.56
2022-10-20T08:49:55.599Z,101872.63
2022-10-20T08:52:22.583Z,101869.00
2022-10-20T08:54:48.903Z,101883.56
2022-10-20T08:57:19.083Z,101883.66
2022-10-20T08:59:45.419Z,101876.50
2022-10-20T09:02:15.381Z,101872.88
2022-10-20T09:04:47.597Z,101872.97
2022-10-20T09:07:20.320Z,101872.00
2022-10-20T09:09:46.669Z,101863.97
2022-10-20T09:12:14.964Z,101863.56
2022-10-20T09:14:41.278Z,101853.84
2022-10-20T09:17:12.414Z,101855.75
2022-10-20T09:19:38.738Z,101850.31
2022-10-20T09:22:05.667Z,101847.44
2022-10-20T09:24:32.013Z,101837.03
2022-10-20T09:26:59.872Z,101827.22
2022-10-20T09:29:36.605Z,101814.81
2022-10-20T09:32:15.432Z,101832.78
2022-10-20T09:34:49.249Z,101823.03
2022-10-20T09:37:16.651Z,101820.16
2022-10-20T09:40:03.151Z,101821.84
2022-10-20T09:42:30.278Z,101819.72
2022-10-20T09:44:57.096Z,101806.16
2022-10-20T09:47:23.895Z,101800.16
2022-10-20T09:49:59.905Z,101802.94
2022-10-20T09:52:30.484Z,101798.44
2022-10-20T09:55:01.327Z,101793.59
2022-10-20T09:57:27.689Z,101789.03
2022-10-20T09:59:54.010Z,101786.13
2022-10-20T10:02:20.249Z,101791.63
2022-10-20T10:04:47.271Z,101792.06
2022-10-20T10:07:22.599Z,101786.19
2022-10-20T10:10:00.415Z,101778.06
2022-10-20T10:12:29.415Z,101778.56
2022-10-20T10:14:56.917Z,101775.47
2022-10-20T10:17:29.898Z,101771.94
2022-10-20T10:19:56.533Z,101765.44
2022-10-20T10:22:22.935Z,101762.84
2022-10-20T10:24:49.254Z,101755.50
2022-10-20T10:27:28.442Z,101732.84
2022-10-20T10:29:55.159Z,101739.03
2022-10-20T10:32:25.650Z,101738.16
2022-10-20T10:35:04.167Z,101737.09
2022-10-20T10:37:33.871Z,101735.41
2022-10-20T10:40:02.106Z,101732.63
2022-10-20T10:42:31.672Z,101741.38
2022-10-20T10:45:03.260Z,101723.94
2022-10-20T10:47:34.206Z,101725.44
2022-10-20T10:50:20.573Z,101712.75
2022-10-20T10:53:01.594Z,101708.66
2022-10-20T10:55:47.672Z,101705.88
2022-10-20T10:58:24.361Z,101706.63
2022-10-20T11:01:05.723Z,101686.53
2022-10-20T11:03:50.574Z,101686.31
2022-10-20T11:06:32.198Z,101681.28
2022-10-20T11:09:16.229Z,101675.72
2022-10-20T11:11:48.754Z,101672.25
2022-10-20T11:14:21.364Z,101672.44
2022-10-20T11:16:47.626Z,101654.06
2022-10-20T11:19:13.880Z,101658.03
2022-10-20T11:21:50.178Z,101652.25
2022-10-20T11:24:18.065Z,101646.38
2022-10-20T11:26:50.297Z,101654.72
2022-10-20T11:29:17.924Z,101644.47
2022-10-20T11:31:54.782Z,101643.41
2022-10-20T11:34:28.221Z,101650.75
2022-10-20T11:37:06.527Z,101640.19
2022-10-20T11:39:47.866Z,101630.69
2022-10-20T11:42:20.170Z,101633.75
2022-10-20T11:44:46.493Z,101631.94
2022-10-20T11:47:13.507Z,101618.66
2022-10-20T11:49:40.149Z,101620.47
2022-10-20T11:52:20.302Z,101619.19
2022-10-20T11:55:00.481Z,101619.19
2022-10-20T11:57:35.730Z,101617.19
2022-10-20T12:00:01.980Z,101622.97
2022-10-20T12:02:43.309Z,101614.41
2022-10-20T12:05:09.538Z,101613.72
2022-10-20T12:08:05.596Z,101617.19
2022-10-20T12:10:48.345Z,101614.19
2022-10-20T12:13:18.334Z,101611.56
2022-10-20T12:15:48.313Z,101593.88
2022-10-20T12:18:30.557Z,101589.81
2022-10-20T12:21:00.680Z,101585.22
2022-10-20T12:23:57.535Z,101585.03
2022-10-20T12:26:29.917Z,101583.66
2022-10-20T12:28:56.606Z,101579.56
2022-10-20T12:31:23.015Z,101582.56
2022-10-20T12:33:49.253Z,101593.78
2022-10-20T12:36:18.361Z,101581.50
2022-10-20T12:38:45.273Z,101582.91
2022-10-20T12:41:12.380Z,101583.66
2022-10-20T12:43:46.545Z,101571.28
2022-10-20T12:46:15.905Z,101562.84
2022-10-20T12:48:43.524Z,101561.78
2022-10-20T12:51:17.750Z,101561.72
2022-10-20T12:53:44.065Z,101548.84
2022-10-20T12:56:10.675Z,101537.50
2022-10-20T12:58:37.559Z,101543.47
2022-10-20T13:01:05.305Z,101544.34
2022-10-20T13:03:31.578Z,101537.88
2022-10-20T13:05:58.293Z,101534.25
2022-10-20T13:08:28.429Z,101529.78
2022-10-20T13:10:54.837Z,101518.56
2022-10-20T13:13:21.162Z,101515.44
2022-10-20T13:15:48.393Z,101512.28
2022-10-20T13:18:20.032Z,101515.72
2022-10-20T13:20:46.295Z,101508.69
2022-10-20T13:23:12.815Z,101507.63
2022-10-20T13:25:39.949Z,101509.84
2022-10-20T13:28:12.322Z,101499.06
2022-10-20T13:30:42.205Z,101494.19
2022-10-20T13:33:33.727Z,101487.72
2022-10-20T13:36:04.954Z,101484.31
2022-10-20T13:38:32.873Z,101480.78
2022-10-20T13:41:11.351Z,101475.06
2022-10-20T13:43:56.638Z,101468.75
2022-10-20T13:46:27.151Z,101467.00
2022-10-20T13:49:07.228Z,101470.97
2022-10-20T13:51:42.764Z,101464.53
2022-10-20T13:54:09.100Z,101474.16
2022-10-20T13:56:36.170Z,101473.06
2022-10-20T13:59:06.135Z,101472.78
2022-10-20T14:01:33.481Z,101472.16
2022-10-20T14:03:59.817Z,101473.09
2022-10-20T14:06:33.202Z,101465.88
2022-10-20T14:09:03.871Z,101477.88
2022-10-20T14:11:30.269Z,101473.03
2022-10-20T14:13:56.906Z,101470.78
2022-10-20T14:16:23.665Z,101473.03
2022-10-20T14:18:59.917Z,101480.75
2022-10-20T14:21:28.630Z,101474.41
2022-10-20T14:23:55.554Z,101463.06
2022-10-20T14:26:21.921Z,101463.06
2022-10-20T14:28:51.402Z,101469.31
2022-10-20T14:31:20.212Z,101461.84
2022-10-20T14:33:46.591Z,101461.38
2022-10-20T14:36:22.878Z,101454.50
2022-10-20T14:38:50.095Z,101441.81
2022-10-20T14:41:29.374Z,101447.41
2022-10-20T14:43:56.746Z,101439.31
2022-10-20T14:46:28.378Z,101426.34
2022-10-20T14:48:54.707Z,101418.28
2022-10-20T14:51:33.153Z,101426.72
2022-10-20T14:54:18.210Z,101435.19
2022-10-20T14:56:45.033Z,101429.50
2022-10-20T14:59:14.746Z,101426.22
2022-10-20T15:01:47.786Z,101425.22
2022-10-20T15:04:16.111Z,101426.09
2022-10-20T15:06:43.184Z,101421.38
2022-10-20T15:09:30.181Z,101427.34
2022-10-20T15:11:56.526Z,101416.00
2022-10-20T15:14:22.880Z,101414.53
2022-10-20T15:16:49.256Z,101408.75
2022-10-20T15:19:26.322Z,101403.25
2022-10-20T15:21:57.655Z,101407.44
2022-10-20T15:24:24.006Z,101401.69
2022-10-20T15:26:50.334Z,101401.69
2022-10-20T15:29:16.663Z,101400.19
2022-10-20T15:31:43.015Z,101390.78
2022-10-20T15:34:09.370Z,101389.94
2022-10-20T15:36:41.747Z,101388.47
2022-10-20T15:39:08.742Z,101386.22
2022-10-20T15:41:35.242Z,101388.28
2022-10-20T15:44:07.698Z,101388.28
2022-10-20T15:46:34.016Z,101373.66
2022-10-20T15:49:00.357Z,101373.75
2022-10-20T15:51:27.261Z,101362.94
2022-10-20T15:53:53.688Z,101352.09
2022-10-20T15:56:20.013Z,101347.50
2022-10-20T15:58:46.360Z,101352.53
2022-10-20T16:01:12.973Z,101350.31
2022-10-20T16:03:41.227Z,101350.31
2022-10-20T16:06:07.548Z,101356.06
2022-10-20T16:08:35.344Z,101341.72
2022-10-20T16:11:02.210Z,101353.25
2022-10-20T16:13:28.538Z,101356.06
2022-10-20T16:15:54.858Z,101353.25
2022-10-20T16:18:21.187Z,101352.00
2022-10-20T16:20:47.511Z,101352.72
2022-10-20T16:23:13.841Z,101354.22
2022-10-20T16:25:40.479Z,101350.69
2022-10-20T16:28:06.803Z,101349.09
2022-10-20T16:30:33.133Z,101353.47
2022-10-20T16:32:59.456Z,101356.34
2022-10-20T16:35:25.826Z,101357.00
2022-10-20T16:37:52.148Z,101359.22
2022-10-20T16:40:19.324Z,101356.91
2022-10-20T16:42:45.633Z,101351.78
2022-10-20T16:45:13.148Z,101362.56
2022-10-20T16:47:39.912Z,101360.34
2022-10-20T16:50:06.559Z,101358.75
2022-10-20T16:52:32.926Z,101357.34
2022-10-20T16:54:59.260Z,101342.94
2022-10-20T16:57:26.672Z,101344.34
2022-10-20T16:59:53.002Z,101332.81
2022-10-20T17:02:19.354Z,101329.81
2022-10-20T17:04:49.301Z,101303.78
2022-10-20T17:07:15.842Z,101305.94
2022-10-20T17:09:42.162Z,101312.44
2022-10-20T17:12:08.478Z,101309.44
2022-10-20T17:14:34.809Z,101303.69
2022-10-20T17:17:01.127Z,101303.59
2022-10-20T17:19:27.465Z,101301.34
2022-10-20T17:21:56.151Z,101304.88
2022-10-20T17:24:24.294Z,101299.13
2022-10-20T17:26:50.627Z,101285.44
2022-10-20T17:29:16.953Z,101287.59
2022-10-20T17:31:43.286Z,101278.84
2022-10-20T17:34:09.616Z,101283.22
2022-10-20T17:36:35.933Z,101281.72
2022-10-20T17:39:03.654Z,101282.38
2022-10-20T17:41:30.069Z,101286.00
2022-10-20T17:43:58.390Z,101287.50
2022-10-20T17:46:24.725Z,101306.16
2022-10-20T17:48:51.055Z,101297.63
2022-10-20T17:51:19.394Z,101300.91
2022-10-20T17:53:47.851Z,101296.72
2022-10-20T17:56:18.079Z,101277.84
2022-10-20T17:58:44.785Z,101286.84
2022-10-20T18:01:11.075Z,101284.25
2022-10-20T18:03:37.468Z,101257.66
2022-10-20T18:06:07.602Z,101274.69
2022-10-20T18:08:34.047Z,101257.69
2022-10-20T18:11:00.403Z,101254.59
2022-10-20T18:13:26.715Z,101252.84
2022-10-20T18:15:53.043Z,101248.41
2022-10-20T18:18:19.358Z,101226.34
2022-10-20T18:20:55.623Z,101233.31
2022-10-20T18:23:21.929Z,101231.81
2022-10-20T18:25:48.314Z,101239.16
2022-10-20T18:28:17.921Z,101236.09
2022-10-20T18:30:44.491Z,101247.44
2022-10-20T18:33:10.809Z,101241.47
2022-10-20T18:35:37.300Z,101243.91
2022-10-20T18:38:03.743Z,101240.28
2022-10-20T18:40:30.074Z,101221.94
2022-10-20T18:42:56.381Z,101215.66
2022-10-20T18:45:25.260Z,101220.09
2022-10-20T18:47:52.423Z,101221.56
2022-10-20T18:50:18.734Z,101222.34
2022-10-20T18:52:45.045Z,101213.59
2022-10-20T18:55:11.761Z,101200.03
2022-10-20T18:57:39.371Z,101212.94
2022-10-20T19:00:06.895Z,101201.41
2022-10-20T19:02:34.309Z,101197.03
2022-10-20T19:05:01.175Z,101192.69
2022-10-20T19:07:27.483Z,101197.03
2022-10-20T19:09:55.603Z,101212.94
2022-10-20T19:12:22.090Z,101212.00
2022-10-20T19:14:48.413Z,101213.41
2022-10-20T19:17:14.721Z,101206.91
2022-10-20T19:19:43.087Z,101204.13
2022-10-20T19:22:09.395Z,101191.00
2022-10-20T19:24:39.687Z,101190.34
2022-10-20T19:27:25.675Z,101195.56
2022-10-20T19:29:52.312Z,101187.00
2022-10-20T19:32:18.614Z,101186.25
2022-10-20T19:34:45.278Z,101180.47
2022-10-20T19:37:11.578Z,101179.66
2022-10-20T19:39:38.704Z,101184.09
2022-10-20T19:42:05.444Z,101182.72
2022-10-20T19:44:31.778Z,101171.19
2022-10-20T19:46:58.152Z,101176.22
2022-10-20T19:49:24.487Z,101178.28
2022-10-20T19:51:50.793Z,101173.88
2022-10-20T19:54:17.113Z,101178.06
2022-10-20T19:56:43.442Z,101165.16
2022-10-20T19:59:09.873Z,101157.91
2022-10-20T20:01:36.193Z,101150.72
2022-10-20T20:04:02.802Z,101150.84
2022-10-20T20:06:29.138Z,101148.69
2022-10-20T20:08:59.408Z,101149.44
2022-10-20T20:11:30.734Z,101137.91
2022-10-20T20:13:57.911Z,101131.38
2022-10-20T20:16:24.267Z,101135.78
2022-10-20T20:18:50.640Z,101137.25
2022-10-20T20:21:16.956Z,101139.41
2022-10-20T20:24:00.107Z,101130.75
2022-10-20T20:26:30.354Z,101131.38
2022-10-20T20:28:56.714Z,101137.91
2022-10-20T20:31:23.113Z,101140.72
2022-10-20T20:33:49.482Z,101139.31
2022-10-20T20:36:15.779Z,101139.94
2022-10-20T20:38:42.361Z,101139.94
2022-10-20T20:41:10.472Z,101139.19
2022-10-20T20:43:36.794Z,101150.72
2022-10-20T20:46:06.342Z,101140.63
2022-10-20T20:48:32.670Z,101142.00
2022-10-20T20:50:59.834Z,101145.53
2022-10-20T20:53:26.199Z,101145.53
2022-10-20T20:56:11.073Z,101141.06
2022-10-20T20:58:37.383Z,101138.28
2022-10-20T21:01:07.854Z,101134.75
2022-10-20T21:03:34.205Z,101136.81
2022-10-20T21:06:13.165Z,101133.25
2022-10-20T21:08:39.735Z,101131.03
2022-10-20T21:11:06.099Z,101130.31
2022-10-20T21:13:32.866Z,101133.09
2022-10-20T21:16:11.263Z,101130.31
2022-10-20T21:18:37.945Z,101122.09
2022-10-20T21:23:42.967Z,101127.03
2022-10-20T21:26:09.471Z,101118.28
2022-10-20T21:28:35.852Z,101131.97
2022-10-20T21:31:05.846Z,101125.56
2022-10-20T21:33:32.251Z,101121.81
2022-10-20T21:36:05.167Z,101121.19
2022-10-20T21:38:34.450Z,101125.47
2022-10-20T21:41:10.820Z,101126.75
2022-10-20T21:43:37.675Z,101128.25
2022-10-20T21:46:27.299Z,101126.75
2022-10-20T21:48:54.613Z,101118.09
2022-10-20T21:51:21.735Z,101119.50
2022-10-20T21:53:48.046Z,101110.88
2022-10-20T21:56:14.385Z,101107.25
2022-10-20T21:58:40.730Z,101106.47
2022-10-20T22:01:17.382Z,101114.38
2022-10-20T22:03:44.018Z,101112.91
2022-10-20T22:06:10.699Z,101115.78
2022-10-20T22:08:37.352Z,101119.31
2022-10-20T22:11:04.422Z,101119.31
2022-10-20T22:13:30.867Z,101122.94
2022-10-20T22:15:57.186Z,101114.94
2022-10-20T22:18:23.510Z,101119.31
2022-10-20T22:20:49.835Z,101129.47
2022-10-20T22:23:16.213Z,101119.31
2022-10-20T22:25:42.579Z,101117.06
2022-10-20T22:28:08.917Z,101112.81
2022-10-20T22:30:35.282Z,101119.31
2022-10-20T22:33:01.588Z,101107.78
2022-10-20T22:35:27.973Z,101094.78
2022-10-20T22:37:54.299Z,101099.75
2022-10-20T22:40:20.611Z,101086.13
2022-10-20T22:42:46.950Z,101087.50
2022-10-20T22:45:13.291Z,101093.25
2022-10-20T22:47:39.620Z,101088.16
2022-10-20T22:50:06.097Z,101096.78
2022-10-20T22:52:32.421Z,101094.56
2022-10-20T22:54:58.725Z,101093.06
2022-10-20T22:57:25.053Z,101086.69
2022-10-20T22:59:51.694Z,101082.22
2022-10-20T23:02:18.007Z,101081.56
2022-10-20T23:04:44.321Z,101085.84
2022-10-20T23:07:10.644Z,101087.22
2022-10-20T23:09:36.970Z,101084.34
2022-10-20T23:12:03.290Z,101064.94
2022-10-20T23:14:29.608Z,101066.31
2022-10-20T23:16:55.911Z,101078.56
2022-10-20T23:19:22.256Z,101084.34
2022-10-20T23:21:49.941Z,101072.06
2022-10-20T23:24:16.302Z,101067.06
2022-10-20T23:26:43.435Z,101068.47
2022-10-20T23:29:09.882Z,101054.06
2022-10-20T23:31:36.203Z,101049.72
2022-10-20T23:34:02.521Z,101045.41
2022-10-20T23:36:28.837Z,101049.03
2022-10-20T23:38:55.155Z,101053.31
2022-10-20T23:41:21.462Z,101021.53
2022-10-20T23:43:47.782Z,101009.28
2022-10-20T23:46:14.093Z,101026.56
2022-10-20T23:48:40.432Z,101026.56
2022-10-20T23:51:06.836Z,101025.81
2022-10-20T23:53:34.600Z,101036.59
2022-10-20T23:56:00.989Z,101011.34
2022-10-20T23:58:27.315Z,101019.97
